createdAt,value
2023-01-02T00:01:44.912Z,66.70
2023-01-02T00:04:11.800Z,65.30
2023-01-02T00:06:39.111Z,66.42
2023-01-02T00:09:07.533Z,65.38
2023-01-02T00:11:34.567Z,63.78
2023-01-02T00:14:01.647Z,63.45
2023-01-02T00:16:28.359Z,63.26
2023-01-02T00:18:55.320Z,62.19
2023-01-02T00:21:22.035Z,62.61
2023-01-02T00:23:48.929Z,62.34
2023-01-02T00:26:15.714Z,61.79
2023-01-02T00:28:42.426Z,64.68
2023-01-02T00:31:11.348Z,63.89
2023-01-02T00:33:38.979Z,62.54
2023-01-02T00:36:11.347Z,61.98
2023-01-02T00:38:39.109Z,62.34
2023-01-02T00:41:06.935Z,62.29
2023-01-02T00:43:33.844Z,61.82
2023-01-02T00:46:03.603Z,61.68
2023-01-02T00:48:32.957Z,62.05
2023-01-02T00:50:59.686Z,62.67
2023-01-02T00:53:26.523Z,61.59
2023-01-02T00:55:53.235Z,62.42
2023-01-02T00:58:19.944Z,62.13
2023-01-02T01:01:06.978Z,62.68
2023-01-02T01:03:33.971Z,62.05
2023-01-02T01:06:06.929Z,62.33
2023-01-02T01:08:35.868Z,62.29
2023-01-02T01:11:07.321Z,62.71
2023-01-02T01:13:34.191Z,62.75
2023-01-02T01:16:08.558Z,62.33
2023-01-02T01:18:35.916Z,64.35
2023-01-02T01:21:14.542Z,63.32
2023-01-02T01:23:41.455Z,63.17
2023-01-02T01:26:11.280Z,62.88
2023-01-02T01:28:40.065Z,62.88
2023-01-02T01:31:13.219Z,63.04
2023-01-02T01:33:41.973Z,63.27
2023-01-02T01:36:17.251Z,63.08
2023-01-02T01:38:45.093Z,62.53
2023-01-02T01:41:13.891Z,64.79
2023-01-02T01:43:43.406Z,64.92
2023-01-02T01:46:33.724Z,64.37
2023-01-02T01:49:10.106Z,63.52
2023-01-02T01:51:45.205Z,62.63
2023-01-02T01:54:15.442Z,62.89
2023-01-02T01:56:49.804Z,62.97
2023-01-02T01:59:17.067Z,63.38
2023-01-02T02:01:44.535Z,63.07
2023-01-02T02:04:13.729Z,62.40
2023-01-02T02:06:40.900Z,61.60
2023-01-02T02:09:19.047Z,61.23
2023-01-02T02:11:47.033Z,61.25
2023-01-02T02:14:13.895Z,60.57
2023-01-02T02:16:50.320Z,60.97
2023-01-02T02:19:30.333Z,60.71
2023-01-02T02:22:24.399Z,60.38
2023-01-02T02:25:10.304Z,60.67
2023-01-02T02:28:15.972Z,60.70
2023-01-02T02:30:52.667Z,60.52
2023-01-02T02:33:37.405Z,60.58
2023-01-02T02:36:13.339Z,60.98
2023-01-02T02:38:40.418Z,61.10
2023-01-02T02:41:11.229Z,60.54
2023-01-02T02:44:11.950Z,60.50
2023-01-02T02:46:48.904Z,60.34
2023-01-02T02:49:28.622Z,60.62
2023-01-02T02:52:22.833Z,60.52
2023-01-02T02:54:58.325Z,61.23
2023-01-02T02:57:25.625Z,61.43
2023-01-02T02:59:53.271Z,61.78
2023-01-02T03:02:20.744Z,61.41
2023-01-02T03:04:53.176Z,61.19
2023-01-02T03:07:42.561Z,60.65
2023-01-02T03:10:26.692Z,60.86
2023-01-02T03:13:13.251Z,61.20
2023-01-02T03:16:18.338Z,60.94
2023-01-02T03:19:08.825Z,60.56
2023-01-02T03:21:48.446Z,60.44
2023-01-02T03:24:19.991Z,60.12
2023-01-02T03:26:51.670Z,60.98
2023-01-02T03:29:35.830Z,60.87
2023-01-02T03:32:07.738Z,61.38
2023-01-02T03:34:39.023Z,60.94
2023-01-02T03:37:14.220Z,61.23
2023-01-02T03:39:48.233Z,60.74
2023-01-02T03:42:55.355Z,61.05
2023-01-02T03:45:27.438Z,61.05
2023-01-02T03:48:02.694Z,61.68
2023-01-02T03:50:52.869Z,61.67
2023-01-02T03:53:20.904Z,62.21
2023-01-02T03:56:02.917Z,62.35
2023-01-02T03:58:55.989Z,62.64
2023-01-02T04:01:37.232Z,64.36
2023-01-02T04:04:12.933Z,63.70
2023-01-02T04:06:45.969Z,63.63
2023-01-02T04:09:18.645Z,63.83
2023-01-02T04:11:51.869Z,63.26
2023-01-02T04:14:42.351Z,63.00
2023-01-02T04:17:10.486Z,63.94
2023-01-02T04:19:44.214Z,64.07
2023-01-02T04:22:20.392Z,63.93
2023-01-02T04:24:54.873Z,63.44
2023-01-02T04:27:29.387Z,63.23
2023-01-02T04:29:56.729Z,63.91
2023-01-02T04:32:37.544Z,63.15
2023-01-02T04:35:10.521Z,64.06
2023-01-02T04:37:41.704Z,65.37
2023-01-02T04:40:11.913Z,64.31
2023-01-02T04:42:38.613Z,64.07
2023-01-02T04:45:05.863Z,63.82
2023-01-02T04:47:32.625Z,63.86
2023-01-02T04:49:59.479Z,62.94
2023-01-02T04:52:27.853Z,64.03
2023-01-02T04:54:55.456Z,64.00
2023-01-02T04:57:22.173Z,64.76
2023-01-02T04:59:48.981Z,64.63
2023-01-02T05:02:15.934Z,64.52
2023-01-02T05:04:43.834Z,65.60
2023-01-02T05:07:10.547Z,66.16
2023-01-02T05:09:37.381Z,65.30
2023-01-02T05:12:04.349Z,64.78
2023-01-02T05:14:31.229Z,63.87
2023-01-02T05:16:58.010Z,63.34
2023-01-02T05:19:24.847Z,63.81
2023-01-02T05:22:10.192Z,62.95
2023-01-02T05:24:37.114Z,63.01
2023-01-02T05:27:03.942Z,62.86
2023-01-02T05:29:31.071Z,62.91
2023-01-02T05:31:57.751Z,62.70
2023-01-02T05:34:24.523Z,62.62
2023-01-02T05:36:51.301Z,62.20
2023-01-02T05:39:18.140Z,62.18
2023-01-02T05:41:45.023Z,62.59
2023-01-02T05:44:11.852Z,63.09
2023-01-02T05:46:39.542Z,62.89
2023-01-02T05:49:10.762Z,62.80
2023-01-02T05:51:37.816Z,63.49
2023-01-02T05:54:04.921Z,63.12
2023-01-02T05:56:32.228Z,63.18
2023-01-02T05:58:58.944Z,62.86
2023-01-02T06:01:28.231Z,62.71
2023-01-02T06:03:59.869Z,63.27
2023-01-02T06:06:38.544Z,63.61
2023-01-02T06:09:08.137Z,64.38
2023-01-02T06:11:35.134Z,64.74
2023-01-02T06:14:01.849Z,65.01
2023-01-02T06:16:28.621Z,65.61
2023-01-02T06:18:55.699Z,64.42
2023-01-02T06:21:23.322Z,64.54
2023-01-02T06:23:55.107Z,64.23
2023-01-02T06:26:22.161Z,63.62
2023-01-02T06:28:54.875Z,64.08
2023-01-02T06:31:25.646Z,63.29
2023-01-02T06:34:00.493Z,63.35
2023-01-02T06:36:30.810Z,63.05
2023-01-02T06:38:58.367Z,62.92
2023-01-02T06:41:25.685Z,63.51
2023-01-02T06:43:52.932Z,64.27
2023-01-02T06:46:22.386Z,64.47
2023-01-02T06:48:50.059Z,64.35
2023-01-02T06:51:19.598Z,64.38
2023-01-02T06:53:46.875Z,64.16
2023-01-02T06:56:15.840Z,64.53
2023-01-02T06:58:42.739Z,64.42
2023-01-02T07:01:15.153Z,63.84
2023-01-02T07:03:42.846Z,63.78
2023-01-02T07:06:12.938Z,63.61
2023-01-02T07:08:40.189Z,63.47
2023-01-02T07:11:18.428Z,63.97
2023-01-02T07:13:46.363Z,64.76
2023-01-02T07:16:16.099Z,64.83
2023-01-02T07:18:43.379Z,63.69
2023-01-02T07:21:11.440Z,63.84
2023-01-02T07:23:38.789Z,63.50
2023-01-02T07:26:06.641Z,64.22
2023-01-02T07:28:34.386Z,65.11
2023-01-02T07:31:05.156Z,66.04
2023-01-02T07:33:32.948Z,66.30
2023-01-02T07:36:01.785Z,66.77
2023-01-02T07:38:28.687Z,66.58
2023-01-02T07:40:56.542Z,65.35
2023-01-02T07:43:23.925Z,65.46
2023-01-02T07:45:51.205Z,64.88
2023-01-02T07:48:18.805Z,64.84
2023-01-02T07:50:46.296Z,66.39
2023-01-02T07:53:13.102Z,66.55
2023-01-02T07:55:40.045Z,65.96
2023-01-02T07:58:07.460Z,66.56
2023-01-02T08:00:35.437Z,66.29
2023-01-02T08:03:02.368Z,65.46
2023-01-02T08:05:29.143Z,64.55
2023-01-02T08:07:56.012Z,64.03
2023-01-02T08:10:23.112Z,63.68
2023-01-02T08:12:49.974Z,62.53
2023-01-02T08:15:16.712Z,63.51
2023-01-02T08:17:43.514Z,63.68
2023-01-02T08:20:11.110Z,63.35
2023-01-02T08:22:38.050Z,62.40
2023-01-02T08:25:05.315Z,62.62
2023-01-02T08:27:32.068Z,62.58
2023-01-02T08:29:59.330Z,62.10
2023-01-02T08:32:26.273Z,61.77
2023-01-02T08:34:53.166Z,61.80
2023-01-02T08:37:24.185Z,60.50
2023-01-02T08:39:50.995Z,60.50
2023-01-02T08:42:17.745Z,60.96
2023-01-02T08:44:44.713Z,59.90
2023-01-02T08:47:11.581Z,58.76
2023-01-02T08:49:38.233Z,58.41
2023-01-02T08:52:05.589Z,56.77
2023-01-02T08:54:32.620Z,57.99
2023-01-02T08:56:59.486Z,56.93
2023-01-02T08:59:26.252Z,55.25
2023-01-02T09:01:53.805Z,56.20
2023-01-02T09:04:20.951Z,57.58
2023-01-02T09:06:48.293Z,59.85
2023-01-02T09:09:17.042Z,60.38
2023-01-02T09:11:52.039Z,61.20
2023-01-02T09:14:20.918Z,61.22
2023-01-02T09:16:48.395Z,61.53
2023-01-02T09:19:16.585Z,61.63
2023-01-02T09:21:43.516Z,62.00
2023-01-02T09:24:10.938Z,61.59
2023-01-02T09:26:42.520Z,61.77
2023-01-02T09:29:10.859Z,62.18
2023-01-02T09:31:38.493Z,62.40
2023-01-02T09:34:05.321Z,63.80
2023-01-02T09:36:32.578Z,63.16
2023-01-02T09:39:01.325Z,62.86
2023-01-02T09:41:39.193Z,62.02
2023-01-02T09:44:24.244Z,61.50
2023-01-02T09:47:00.923Z,60.10
2023-01-02T09:49:32.742Z,58.38
2023-01-02T09:51:59.737Z,58.46
2023-01-02T09:54:28.862Z,57.55
2023-01-02T09:57:05.095Z,56.82
2023-01-02T09:59:44.221Z,56.28
2023-01-02T10:02:23.101Z,56.75
2023-01-02T10:05:19.323Z,54.64
2023-01-02T10:07:55.480Z,54.32
2023-01-02T10:10:29.909Z,54.17
2023-01-02T10:22:28.018Z,53.34
2023-01-02T10:25:04.885Z,54.98
2023-01-02T10:27:39.934Z,56.33
2023-01-02T10:30:07.288Z,55.17
2023-01-02T10:32:35.653Z,55.20
2023-01-02T10:35:02.464Z,54.26
2023-01-02T10:37:29.754Z,54.19
2023-01-02T10:39:56.607Z,54.58
2023-01-02T10:42:24.943Z,56.70
2023-01-02T10:44:52.192Z,55.07
2023-01-02T10:47:34.318Z,53.46
2023-01-02T10:50:29.629Z,53.75
2023-01-02T10:53:08.382Z,54.90
2023-01-02T10:55:41.041Z,53.56
2023-01-02T10:58:20.993Z,53.61
2023-01-02T11:01:02.552Z,53.35
2023-01-02T11:03:30.378Z,53.56
2023-01-02T11:06:10.310Z,53.07
2023-01-02T11:08:42.907Z,52.98
2023-01-02T11:11:17.864Z,53.44
2023-01-02T11:13:54.004Z,53.69
2023-01-02T11:16:24.125Z,53.30
2023-01-02T11:18:54.248Z,52.68
2023-01-02T11:21:33.142Z,52.94
2023-01-02T11:24:19.485Z,52.86
2023-01-02T11:26:49.047Z,53.07
2023-01-02T11:29:23.669Z,52.76
2023-01-02T11:31:58.117Z,53.22
2023-01-02T11:34:46.922Z,52.58
2023-01-02T11:40:24.359Z,52.98
2023-01-02T11:52:49.761Z,50.99
2023-01-02T11:55:32.832Z,50.41
2023-01-02T11:58:11.783Z,48.59
2023-01-02T12:00:41.930Z,46.06
2023-01-02T12:03:30.381Z,43.94
2023-01-02T12:06:09.147Z,43.18
2023-01-02T12:08:51.049Z,43.35
2023-01-02T12:11:41.644Z,42.63
2023-01-02T12:14:33.333Z,39.00
2023-01-02T12:17:32.082Z,37.38
2023-01-02T12:20:14.855Z,35.00
2023-01-02T12:23:15.949Z,35.41
2023-01-02T12:26:10.605Z,36.18
2023-01-02T12:28:48.702Z,36.21
2023-01-02T12:31:27.820Z,37.06
2023-01-02T12:34:08.235Z,36.68
2023-01-02T12:36:34.980Z,34.88
2023-01-02T12:39:56.121Z,33.82
2023-01-02T12:42:37.893Z,32.75
2023-01-02T12:45:19.114Z,32.51
2023-01-02T12:48:01.027Z,32.03
2023-01-02T12:50:59.969Z,30.27
2023-01-02T12:53:47.947Z,29.10
2023-01-02T12:56:51.258Z,28.31
2023-01-02T12:59:33.841Z,28.84
2023-01-02T13:02:24.483Z,29.23
2023-01-02T13:04:57.751Z,28.05
2023-01-02T13:07:46.869Z,27.88
2023-01-02T13:10:20.396Z,28.78
2023-01-02T13:12:48.902Z,29.46
2023-01-02T13:15:28.074Z,30.06
2023-01-02T13:18:07.848Z,28.58
2023-01-02T13:20:56.268Z,29.32
2023-01-02T13:23:46.903Z,28.72
2023-01-02T13:26:23.226Z,28.89
2023-01-02T13:28:59.521Z,30.23
2023-01-02T13:31:46.011Z,32.24
2023-01-02T13:34:22.272Z,34.97
2023-01-02T13:36:51.143Z,36.34
2023-01-02T13:39:17.759Z,37.30
2023-01-02T13:42:16.254Z,38.83
2023-01-02T13:44:53.043Z,40.07
2023-01-02T13:47:36.614Z,40.26
2023-01-02T13:50:28.539Z,40.37
2023-01-02T13:53:01.087Z,41.65
2023-01-02T13:55:41.543Z,42.53
2023-01-02T13:58:13.305Z,43.03
2023-01-02T14:00:46.962Z,43.47
2023-01-02T14:03:24.451Z,42.69
2023-01-02T14:05:57.784Z,44.20
2023-01-02T14:08:31.941Z,43.75
2023-01-02T14:11:55.458Z,44.54
2023-01-02T14:14:29.908Z,43.50
2023-01-02T14:17:08.446Z,45.02
2023-01-02T14:19:35.416Z,45.33
2023-01-02T14:22:17.580Z,45.75
2023-01-02T14:24:49.212Z,45.66
2023-01-02T14:27:27.382Z,45.70
2023-01-02T14:30:03.333Z,45.61
2023-01-02T14:32:44.447Z,45.65
2023-01-02T14:35:14.051Z,46.42
2023-01-02T14:37:48.266Z,45.98
2023-01-02T14:40:23.923Z,46.28
2023-01-02T14:43:20.716Z,46.12
2023-01-02T14:45:51.061Z,46.00
2023-01-02T14:48:30.795Z,47.05
2023-01-02T14:51:08.138Z,46.91
2023-01-02T14:53:57.524Z,47.10
2023-01-02T14:56:33.985Z,47.17
2023-01-02T14:59:03.012Z,46.79
2023-01-02T15:01:44.255Z,47.41
2023-01-02T15:04:15.381Z,48.51
2023-01-02T15:06:47.205Z,48.79
2023-01-02T15:09:31.269Z,47.29
2023-01-02T15:12:19.927Z,48.32
2023-01-02T15:14:47.408Z,48.19
2023-01-02T15:17:19.852Z,48.04
2023-01-02T15:19:47.971Z,48.33
2023-01-02T15:22:25.125Z,50.19
2023-01-02T15:24:53.894Z,49.18
2023-01-02T15:27:27.050Z,49.79
2023-01-02T15:29:59.860Z,49.43
2023-01-02T15:32:32.396Z,50.59
2023-01-02T15:35:20.368Z,50.47
2023-01-02T15:37:48.541Z,49.96
2023-01-02T15:40:25.713Z,50.80
2023-01-02T15:45:17.626Z,48.11
2023-01-02T15:47:46.627Z,47.51
2023-01-02T15:50:22.707Z,48.14
2023-01-02T15:53:17.392Z,47.84
2023-01-02T15:55:44.387Z,47.14
2023-01-02T15:58:16.854Z,47.03
2023-01-02T16:00:45.137Z,50.70
2023-01-02T16:04:02.845Z,51.48
2023-01-02T16:06:31.152Z,50.25
2023-01-02T16:09:00.369Z,49.91
2023-01-02T16:11:27.904Z,51.03
2023-01-02T16:14:22.028Z,51.11
2023-01-02T16:16:58.866Z,50.76
2023-01-02T16:19:34.553Z,50.14
2023-01-02T16:22:07.138Z,51.06
2023-01-02T16:24:37.170Z,52.53
2023-01-02T16:27:05.015Z,50.71
2023-01-02T16:29:32.066Z,51.10
2023-01-02T16:32:01.375Z,52.92
2023-01-02T16:34:28.207Z,53.19
2023-01-02T16:37:28.699Z,53.18
2023-01-02T16:39:56.611Z,53.36
2023-01-02T16:42:37.907Z,55.66
2023-01-02T16:45:06.351Z,54.58
2023-01-02T16:47:42.650Z,54.96
2023-01-02T16:50:18.967Z,56.41
2023-01-02T16:52:46.472Z,57.23
2023-01-02T16:55:16.159Z,56.64
2023-01-02T16:57:43.002Z,57.76
2023-01-02T17:00:10.615Z,58.45
2023-01-02T17:02:37.686Z,56.00
2023-01-02T17:05:24.419Z,55.79
2023-01-02T17:07:51.184Z,55.01
2023-01-02T17:10:17.936Z,54.62
2023-01-02T17:12:44.831Z,55.66
2023-01-02T17:15:13.774Z,56.69
2023-01-02T17:31:25.737Z,54.89
2023-01-02T17:33:52.985Z,51.15
2023-01-02T17:36:19.723Z,50.20
2023-01-02T17:38:46.516Z,51.18
2023-01-02T17:41:13.363Z,52.94
2023-01-02T17:43:40.301Z,50.50
2023-01-02T17:47:00.753Z,51.74
2023-01-02T17:49:14.143Z,52.86
2023-01-02T17:51:40.847Z,51.52
2023-01-02T17:54:07.530Z,52.22
2023-01-02T17:56:34.245Z,52.71
2023-01-02T17:59:01.024Z,52.13
2023-01-02T18:01:27.887Z,51.62
2023-01-02T18:03:54.905Z,50.48
2023-01-02T18:06:21.630Z,51.19
2023-01-02T18:08:48.580Z,51.57
2023-01-02T18:11:16.622Z,51.98
2023-01-02T18:13:52.006Z,52.79
2023-01-02T18:16:26.909Z,56.03
2023-01-02T18:18:54.330Z,56.39
2023-01-02T18:21:23.562Z,54.12
2023-01-02T18:23:54.811Z,54.46
2023-01-02T18:26:24.684Z,55.66
2023-01-02T18:29:02.738Z,56.18
2023-01-02T18:31:44.708Z,54.06
2023-01-02T18:37:23.438Z,56.72
2023-01-02T18:39:50.824Z,56.42
2023-01-02T18:42:28.849Z,55.48
2023-01-02T18:44:59.756Z,55.38
2023-01-02T18:47:30.568Z,55.27
2023-01-02T18:50:28.891Z,56.18
2023-01-02T18:52:55.696Z,57.78
2023-01-02T18:55:34.133Z,56.97
2023-01-02T18:58:30.612Z,57.37
2023-01-02T19:00:57.727Z,57.72
2023-01-02T19:03:26.944Z,56.45
2023-01-02T19:05:54.326Z,58.34
2023-01-02T19:08:21.318Z,56.78
2023-01-02T19:10:54.293Z,55.87
2023-01-02T19:13:27.765Z,56.42
2023-01-02T19:15:59.486Z,55.71
2023-01-02T19:18:36.851Z,55.70
2023-01-02T19:21:10.704Z,52.88
2023-01-02T19:23:48.219Z,53.36
2023-01-02T19:26:37.941Z,53.12
2023-01-02T19:29:12.028Z,53.24
2023-01-02T19:32:30.880Z,56.69
2023-01-02T19:35:29.752Z,55.26
2023-01-02T19:37:56.739Z,54.66
2023-01-02T19:40:24.049Z,54.67
2023-01-02T19:42:53.223Z,49.84
2023-01-02T19:45:25.490Z,52.63
2023-01-02T19:47:53.666Z,52.21
2023-01-02T19:50:23.846Z,52.18
2023-01-02T19:52:51.243Z,53.33
2023-01-02T19:55:19.012Z,52.75
2023-01-02T19:57:46.764Z,52.79
2023-01-02T20:00:16.088Z,53.50
2023-01-02T20:02:45.626Z,53.90
2023-01-02T20:05:17.614Z,53.98
2023-01-02T20:07:48.830Z,53.08
2023-01-02T20:10:15.705Z,52.92
2023-01-02T20:12:42.467Z,52.80
2023-01-02T20:15:24.636Z,51.84
2023-01-02T20:17:53.139Z,55.38
2023-01-02T20:20:22.527Z,55.71
2023-01-02T20:22:51.757Z,57.50
2023-01-02T20:25:24.106Z,58.47
2023-01-02T20:27:52.522Z,57.92
2023-01-02T20:30:24.311Z,58.64
2023-01-02T20:32:51.972Z,58.75
2023-01-02T20:35:18.698Z,59.47
2023-01-02T20:37:45.830Z,56.94
2023-01-02T20:40:12.606Z,55.45
2023-01-02T20:42:40.480Z,55.25
2023-01-02T20:45:07.887Z,55.29
2023-01-02T20:47:36.316Z,55.56
2023-01-02T20:50:04.789Z,55.42
2023-01-02T20:52:31.551Z,59.61
2023-01-02T20:54:58.929Z,59.31
2023-01-02T20:57:25.714Z,58.26
2023-01-02T20:59:52.644Z,57.71
2023-01-02T21:02:19.634Z,58.10
2023-01-02T21:04:46.595Z,58.64
2023-01-02T21:07:13.320Z,60.46
2023-01-02T21:09:40.156Z,59.34
2023-01-02T21:12:26.976Z,59.10
2023-01-02T21:14:54.327Z,58.71
2023-01-02T21:17:21.052Z,58.89
2023-01-02T21:19:48.929Z,57.61
2023-01-02T21:22:15.625Z,56.75
2023-01-02T21:24:43.244Z,56.43
2023-01-02T21:27:13.161Z,56.66
2023-01-02T21:29:40.915Z,56.25
2023-01-02T21:32:08.100Z,57.13
2023-01-02T21:34:34.888Z,55.78
2023-01-02T21:37:01.739Z,56.51
2023-01-02T21:39:28.689Z,56.90
2023-01-02T21:42:13.663Z,55.68
2023-01-02T21:44:40.459Z,55.45
2023-01-02T21:47:07.686Z,55.24
2023-01-02T21:49:34.430Z,55.91
2023-01-02T21:52:01.567Z,55.35
2023-01-02T21:54:28.526Z,55.75
2023-01-02T21:56:55.430Z,55.21
2023-01-02T21:59:25.362Z,55.14
2023-01-02T22:01:53.006Z,58.27
2023-01-02T22:04:22.287Z,59.02
2023-01-02T22:07:29.971Z,57.93
2023-01-02T22:09:36.747Z,56.65
2023-01-02T22:12:07.043Z,55.32
2023-01-02T22:14:36.484Z,54.44
2023-01-02T22:17:08.654Z,54.19
2023-01-02T22:19:36.318Z,54.10
2023-01-02T22:22:03.377Z,53.71
2023-01-02T22:24:30.804Z,54.82
2023-01-02T22:27:04.265Z,54.19
2023-01-02T22:30:00.569Z,54.65
2023-01-02T22:32:19.715Z,54.92
2023-01-02T22:34:47.038Z,55.80
2023-01-02T22:37:22.010Z,56.71
2023-01-02T22:39:48.977Z,57.52
2023-01-02T22:45:30.548Z,55.81
2023-01-02T22:48:00.544Z,54.52
2023-01-02T22:50:34.189Z,55.68
2023-01-02T22:53:01.105Z,55.85
2023-01-02T22:55:27.825Z,55.02
2023-01-02T22:57:54.722Z,54.94
2023-01-02T23:00:23.091Z,55.13
2023-01-02T23:02:50.765Z,54.83
2023-01-02T23:05:20.325Z,52.31
2023-01-02T23:07:49.716Z,55.17
2023-01-02T23:10:17.565Z,53.44
2023-01-02T23:12:44.508Z,53.03
2023-01-02T23:15:13.644Z,50.54
2023-01-02T23:17:58.841Z,50.60
2023-01-02T23:20:26.110Z,50.49
2023-01-02T23:22:54.197Z,50.70
2023-01-02T23:25:21.645Z,49.88
2023-01-02T23:27:48.989Z,50.24
2023-01-02T23:30:16.267Z,49.56
2023-01-02T23:32:44.138Z,50.03
2023-01-02T23:35:11.462Z,49.33
2023-01-02T23:37:38.291Z,49.35
2023-01-02T23:40:06.142Z,49.52
2023-01-02T23:42:32.797Z,49.96
2023-01-02T23:44:59.797Z,49.48
2023-01-02T23:47:26.845Z,48.71
2023-01-02T23:49:53.542Z,49.70
2023-01-02T23:52:20.440Z,51.85
2023-01-02T23:54:47.259Z,50.20
2023-01-02T23:57:13.956Z,52.02
2023-01-02T23:59:40.699Z,52.39
